createdAt,value
2019-05-05T00:01:58.429Z,2.53
2019-05-05T00:07:34.635Z,4.30
2019-05-05T00:13:20.079Z,4.83
2019-05-05T00:18:44.803Z,4.30
2019-05-05T00:24:11.137Z,2.80
2019-05-05T00:29:35.498Z,4.37
2019-05-05T00:35:00.480Z,5.13
2019-05-05T00:40:24.803Z,4.03
2019-05-05T00:45:50.653Z,3.20
2019-05-05T00:51:15.222Z,3.20
2019-05-05T00:56:39.437Z,4.70
2019-05-05T01:02:21.413Z,2.97
2019-05-05T01:07:45.699Z,3.93
2019-05-05T01:13:12.454Z,4.10
2019-05-05T01:18:39.864Z,3.63
2019-05-05T01:24:05.515Z,6.37
2019-05-05T01:29:29.543Z,2.70
2019-05-05T01:34:54.783Z,3.60
2019-05-05T01:40:40.044Z,3.70
2019-05-05T01:46:06.778Z,2.63
2019-05-05T01:51:30.772Z,4.27
2019-05-05T01:56:55.640Z,3.93
2019-05-05T02:02:19.568Z,4.60
2019-05-05T02:07:44.826Z,4.17
2019-05-05T02:13:07.806Z,4.03
2019-05-05T02:18:30.735Z,2.37
2019-05-05T02:23:54.751Z,4.83
2019-05-05T02:29:30.827Z,5.10
2019-05-05T02:34:56.734Z,5.73
2019-05-05T02:40:24.370Z,2.43
2019-05-05T02:46:01.236Z,3.70
2019-05-05T02:51:26.778Z,6.77
2019-05-05T02:56:54.066Z,5.03
2019-05-05T03:02:20.488Z,4.37
2019-05-05T03:07:45.358Z,4.53
2019-05-05T03:13:09.091Z,2.93
2019-05-05T03:18:33.819Z,3.87
2019-05-05T03:23:57.200Z,3.60
2019-05-05T03:29:21.227Z,4.27
2019-05-05T03:34:45.051Z,3.00
2019-05-05T03:40:14.958Z,3.37
2019-05-05T03:45:51.279Z,3.77
2019-05-05T03:51:18.815Z,3.17
2019-05-05T03:56:40.026Z,4.97
2019-05-05T04:02:27.708Z,4.90
2019-05-05T04:07:51.656Z,2.70
2019-05-05T04:13:16.174Z,5.67
2019-05-05T04:18:48.081Z,3.53
2019-05-05T04:24:11.474Z,4.27
2019-05-05T04:29:34.748Z,4.37
2019-05-05T04:34:58.194Z,3.20
2019-05-05T04:40:23.869Z,7.27
2019-05-05T04:45:47.486Z,5.53
2019-05-05T04:51:20.827Z,6.47
2019-05-05T04:56:44.872Z,7.43
2019-05-05T05:02:15.843Z,5.87
2019-05-05T05:07:39.106Z,4.80
2019-05-05T05:13:04.512Z,5.57
2019-05-05T05:18:27.322Z,3.47
2019-05-05T05:23:50.222Z,5.73
2019-05-05T05:29:15.061Z,4.33
2019-05-05T05:34:38.191Z,5.40
2019-05-05T05:40:14.463Z,4.37
2019-05-05T05:46:00.257Z,4.63
2019-05-05T05:51:24.013Z,4.83
2019-05-05T05:56:47.988Z,4.00
2019-05-05T06:02:13.481Z,5.47
2019-05-05T06:07:35.563Z,5.07
2019-05-05T06:12:58.442Z,5.70
2019-05-05T06:18:21.542Z,6.60
2019-05-05T06:23:45.095Z,7.87
2019-05-05T06:29:08.219Z,8.43
2019-05-05T06:34:33.702Z,5.83
2019-05-05T06:39:59.947Z,9.27
2019-05-05T06:45:37.331Z,11.40
2019-05-05T06:51:00.781Z,7.07
2019-05-05T06:56:25.846Z,11.77
2019-05-05T07:01:48.978Z,9.63
2019-05-05T07:07:15.902Z,11.37
2019-05-05T07:12:39.378Z,9.10
2019-05-05T07:18:05.970Z,21.07
2019-05-05T07:23:29.647Z,10.20
2019-05-05T07:28:54.157Z,10.37
2019-05-05T07:34:19.154Z,13.17
2019-05-05T07:39:50.064Z,12.80
2019-05-05T07:45:22.087Z,12.60
2019-05-05T07:50:40.069Z,12.80
2019-05-05T07:56:07.426Z,14.93
2019-05-05T08:01:28.595Z,22.57
2019-05-05T08:06:53.689Z,15.23
2019-05-05T08:12:17.129Z,17.33
2019-05-05T08:17:58.195Z,13.27
2019-05-05T08:23:32.679Z,15.80
2019-05-05T08:29:13.654Z,15.47
2019-05-05T08:34:36.787Z,11.80
2019-05-05T08:40:00.586Z,15.83
2019-05-05T08:45:26.562Z,13.13
2019-05-05T08:50:48.644Z,15.17
2019-05-05T08:56:11.683Z,17.00
2019-05-05T09:01:34.615Z,17.37
2019-05-05T09:06:58.951Z,21.00
2019-05-05T09:12:23.603Z,14.93
2019-05-05T09:17:46.946Z,15.20
2019-05-05T09:23:10.160Z,15.93
2019-05-05T09:28:55.912Z,11.53
2019-05-05T09:34:19.172Z,12.90
2019-05-05T09:39:43.707Z,11.43
2019-05-05T09:45:09.393Z,12.57
2019-05-05T09:50:34.051Z,14.53
2019-05-05T09:55:57.908Z,14.07
2019-05-05T10:01:21.267Z,13.57
2019-05-05T10:06:47.759Z,11.50
2019-05-05T10:12:10.325Z,10.20
2019-05-05T10:17:33.716Z,10.77
2019-05-05T10:22:57.679Z,11.63
2019-05-05T10:28:23.878Z,11.23
2019-05-05T10:33:53.953Z,7.13
2019-05-05T10:39:25.647Z,9.17
2019-05-05T10:44:48.491Z,9.37
2019-05-05T10:50:13.930Z,14.93
2019-05-05T10:55:37.568Z,9.27
2019-05-05T11:01:04.236Z,8.97
2019-05-05T11:06:29.783Z,9.97
2019-05-05T11:11:55.669Z,11.13
2019-05-05T11:17:19.494Z,8.53
2019-05-05T11:22:43.845Z,9.77
2019-05-05T11:28:09.055Z,14.60
2019-05-05T11:34:10.876Z,11.10
2019-05-05T11:39:34.113Z,18.10
2019-05-05T11:44:57.195Z,12.60
2019-05-05T11:50:20.710Z,9.23
2019-05-05T11:55:44.432Z,10.23
2019-05-05T12:01:08.214Z,7.80
2019-05-05T12:06:33.829Z,8.70
2019-05-05T12:11:57.775Z,9.67
2019-05-05T12:17:35.289Z,13.60
2019-05-05T12:22:59.077Z,9.07
2019-05-05T12:28:36.534Z,5.53
2019-05-05T12:34:00.535Z,8.30
2019-05-05T12:39:24.290Z,6.37
2019-05-05T12:45:13.775Z,9.73
2019-05-05T12:50:36.799Z,6.67
2019-05-05T12:56:00.645Z,5.40
2019-05-05T13:01:30.292Z,5.77
2019-05-05T13:06:54.149Z,5.63
2019-05-05T13:12:17.342Z,5.03
2019-05-05T13:17:40.250Z,5.93
2019-05-05T13:23:23.609Z,7.10
2019-05-05T13:28:46.978Z,5.20
2019-05-05T13:34:10.479Z,4.97
2019-05-05T13:39:34.414Z,6.07
2019-05-05T13:45:14.675Z,6.77
2019-05-05T13:50:42.207Z,4.23
2019-05-05T13:56:11.852Z,5.67
2019-05-05T14:01:30.360Z,4.37
2019-05-05T14:06:54.416Z,8.20
2019-05-05T14:12:17.447Z,4.53
2019-05-05T14:17:40.836Z,3.70
2019-05-05T14:23:04.947Z,4.47
2019-05-05T14:28:28.549Z,7.43
2019-05-05T14:33:58.279Z,5.67
2019-05-05T14:39:23.792Z,4.63
2019-05-05T14:44:47.248Z,6.87
2019-05-05T14:50:11.191Z,6.57
2019-05-05T14:55:34.570Z,7.33
2019-05-05T15:00:59.147Z,6.43
2019-05-05T15:06:46.294Z,5.63
2019-05-05T15:12:34.059Z,7.50
2019-05-05T15:17:57.121Z,6.53
2019-05-05T15:23:20.579Z,5.07
2019-05-05T15:28:48.009Z,6.80
2019-05-05T15:34:09.448Z,7.83
2019-05-05T15:39:33.655Z,8.00
2019-05-05T15:44:57.056Z,7.97
2019-05-05T15:50:21.110Z,5.07
2019-05-05T15:55:45.457Z,6.43
2019-05-05T16:01:09.702Z,6.40
2019-05-05T16:06:34.449Z,9.63
2019-05-05T16:11:57.706Z,5.33
2019-05-05T16:17:28.923Z,10.73
2019-05-05T16:23:03.627Z,13.87
2019-05-05T16:28:27.340Z,5.57
2019-05-05T16:33:50.560Z,5.90
2019-05-05T16:39:16.282Z,7.10
2019-05-05T16:44:38.331Z,4.13
2019-05-05T16:50:01.394Z,6.60
2019-05-05T16:55:30.792Z,8.77
2019-05-05T17:00:54.378Z,6.07
2019-05-05T17:06:17.888Z,5.50
2019-05-05T17:11:43.985Z,6.30
2019-05-05T17:17:19.592Z,8.17
2019-05-05T17:22:54.492Z,9.63
2019-05-05T17:28:20.301Z,12.80
2019-05-05T17:33:44.372Z,5.70
2019-05-05T17:39:08.288Z,6.73
2019-05-05T17:44:40.609Z,4.37
2019-05-05T17:50:17.821Z,7.20
2019-05-05T17:55:41.853Z,10.27
2019-05-05T18:01:04.914Z,4.63
2019-05-05T18:07:00.750Z,8.33
2019-05-05T18:12:45.562Z,6.07
2019-05-05T18:18:08.125Z,9.90
2019-05-05T18:23:31.146Z,6.67
2019-05-05T18:28:55.949Z,8.33
2019-05-05T18:34:23.421Z,4.67
2019-05-05T18:39:47.545Z,6.80
2019-05-05T18:45:31.763Z,4.87
2019-05-05T18:50:55.620Z,7.30
2019-05-05T18:56:18.668Z,6.67
2019-05-05T19:01:52.196Z,4.70
2019-05-05T19:07:55.409Z,7.07
2019-05-05T19:13:13.663Z,5.17
2019-05-05T19:18:37.246Z,7.53
2019-05-05T19:24:00.628Z,7.10
2019-05-05T19:29:27.932Z,4.30
2019-05-05T19:34:51.789Z,6.10
2019-05-05T19:40:15.577Z,7.90
2019-05-05T19:45:44.782Z,7.37
2019-05-05T19:51:14.679Z,7.40
2019-05-05T19:56:38.050Z,8.07
2019-05-05T20:02:03.439Z,5.97
2019-05-05T20:07:26.389Z,5.27
2019-05-05T20:12:50.017Z,6.27
2019-05-05T20:18:19.264Z,4.60
2019-05-05T20:23:46.764Z,3.13
2019-05-05T20:29:17.155Z,6.77
2019-05-05T20:35:00.700Z,6.20
2019-05-05T20:40:29.245Z,9.43
2019-05-05T20:45:53.823Z,4.83
2019-05-05T20:51:17.570Z,4.23
2019-05-05T20:56:41.385Z,4.80
2019-05-05T21:02:04.884Z,6.90
2019-05-05T21:07:28.438Z,5.70
2019-05-05T21:12:54.233Z,5.83
2019-05-05T21:18:16.979Z,7.00
2019-05-05T21:23:57.713Z,4.07
2019-05-05T21:29:23.496Z,9.47
2019-05-05T21:34:46.393Z,5.60
2019-05-05T21:40:10.915Z,4.37
2019-05-05T21:45:34.942Z,6.63
2019-05-05T21:51:04.787Z,7.17
2019-05-05T21:57:04.239Z,4.70
2019-05-05T22:02:27.634Z,5.43
2019-05-05T22:07:50.863Z,4.00
2019-05-05T22:13:14.539Z,3.70
2019-05-05T22:18:37.771Z,6.83
2019-05-05T22:24:20.368Z,4.03
2019-05-05T22:29:44.707Z,6.13
2019-05-05T22:35:08.442Z,4.80
2019-05-05T22:40:34.587Z,6.93
2019-05-05T22:45:57.703Z,4.07
2019-05-05T22:51:21.139Z,4.63
2019-05-05T22:56:45.648Z,6.07
2019-05-05T23:02:09.232Z,3.33
2019-05-05T23:07:35.105Z,5.17
2019-05-05T23:12:58.928Z,6.37
2019-05-05T23:18:27.650Z,4.60
2019-05-05T23:24:07.400Z,6.63
2019-05-05T23:29:31.332Z,5.33
2019-05-05T23:34:54.870Z,5.93
2019-05-05T23:40:25.107Z,6.73
2019-05-05T23:45:48.929Z,5.40
2019-05-05T23:51:13.941Z,7.77
2019-05-05T23:56:37.666Z,7.50
